TAF LDRI 280525Z 2806/2906 11006KT 9999 FEW050
                 TX32/2813Z TN22/2903Z
    PROB30 TEMPO 2816/2822 -TSRA FEW050CB=
TAF LDRI 272325Z 2800/2900 VRB02KT CAVOK
                 TX32/2814Z TN22/2803Z
    PROB30 TEMPO 2816/2820 -TSRA FEW050CB=
TAF LDRI 271725Z 2718/2818 VRB02KT CAVOK
                 TX31/2814Z TN22/2803Z
           BECMG 2800/2802 12008KT=
TAF LDRI 271125Z 2712/2812 VRB02KT 9999 SCT040
                 TX29/2714Z TN22/2803Z
    PROB30 TEMPO 2712/2714 32008KT -TSRA SCT040CB
           BECMG 2800/2802 12008KT=
TAF LDRI 270525Z 2706/2806 VRB02KT 9999 SCT040
                 TX29/2714Z TN22/2803Z
    PROB30 TEMPO 2706/2714 -TSRA SCT040CB
    PROB30 TEMPO 2711/2714 32008KT
           BECMG 2800/2802 12008KT=
TAF LDRI 262325Z 2700/2800 12006KT 9999 SCT045
                 TX29/2713Z TN22/2702Z
    PROB30 TEMPO 2706/2710 TSRA SCT040 FEW045CB=